createdAt,value
2022-10-04T00:02:16.302Z,88.52
2022-10-04T00:04:33.626Z,88.70
2022-10-04T00:06:51.613Z,89.19
2022-10-04T00:09:08.614Z,89.38
2022-10-04T00:11:25.834Z,89.12
2022-10-04T00:13:42.869Z,88.93
2022-10-04T00:16:01.295Z,89.11
2022-10-04T00:18:18.261Z,89.58
2022-10-04T00:20:35.279Z,89.31
2022-10-04T00:22:52.317Z,89.36
2022-10-04T00:25:16.880Z,89.39
2022-10-04T00:27:34.218Z,88.64
2022-10-04T00:29:55.500Z,88.53
2022-10-04T00:32:12.434Z,88.93
2022-10-04T00:34:30.286Z,89.58
2022-10-04T00:36:48.657Z,89.99
2022-10-04T00:39:05.646Z,89.33
2022-10-04T00:41:22.626Z,88.94
2022-10-04T00:43:39.695Z,89.23
2022-10-04T00:45:56.809Z,89.22
2022-10-04T00:48:14.858Z,89.32
2022-10-04T00:50:33.274Z,89.52
2022-10-04T00:52:50.469Z,89.69
2022-10-04T00:55:07.404Z,88.93
2022-10-04T00:57:24.700Z,89.35
2022-10-04T00:59:41.718Z,89.23
2022-10-04T01:01:59.910Z,89.41
2022-10-04T01:04:17.191Z,89.25
2022-10-04T01:06:34.423Z,89.31
2022-10-04T01:08:51.403Z,89.17
2022-10-04T01:11:08.413Z,89.14
2022-10-04T01:13:25.309Z,89.53
2022-10-04T01:15:42.628Z,89.08
2022-10-04T01:18:01.994Z,89.28
2022-10-04T01:20:19.491Z,89.18
2022-10-04T01:22:36.779Z,89.00
2022-10-04T01:24:54.006Z,88.98
2022-10-04T01:27:12.244Z,88.86
2022-10-04T01:29:29.207Z,88.85
2022-10-04T01:31:46.562Z,89.09
2022-10-04T01:34:04.647Z,89.31
2022-10-04T01:36:25.605Z,89.27
2022-10-04T01:38:42.579Z,89.48
2022-10-04T01:40:59.866Z,89.60
2022-10-04T01:43:17.101Z,89.64
2022-10-04T01:45:36.178Z,89.55
2022-10-04T01:47:53.183Z,89.42
2022-10-04T01:50:15.569Z,89.27
2022-10-04T01:52:33.172Z,89.14
2022-10-04T01:54:50.123Z,88.91
2022-10-04T01:57:07.632Z,89.28
2022-10-04T01:59:24.805Z,89.31
2022-10-04T02:01:42.191Z,89.15
2022-10-04T02:03:59.623Z,88.33
2022-10-04T02:06:16.652Z,88.35
2022-10-04T02:08:33.712Z,88.49
2022-10-04T02:10:50.912Z,88.35
2022-10-04T02:13:08.183Z,88.00
2022-10-04T02:15:26.140Z,88.14
2022-10-04T02:17:43.439Z,88.79
2022-10-04T02:20:02.813Z,88.57
2022-10-04T02:22:19.804Z,88.52
2022-10-04T02:24:37.095Z,88.28
2022-10-04T02:26:54.286Z,87.98
2022-10-04T02:29:11.234Z,88.12
2022-10-04T02:31:28.294Z,88.88
2022-10-04T02:33:45.640Z,88.97
2022-10-04T02:36:02.610Z,88.90
2022-10-04T02:38:20.835Z,88.98
2022-10-04T02:40:38.531Z,89.00
2022-10-04T02:42:55.460Z,88.87
2022-10-04T02:45:12.757Z,89.20
2022-10-04T02:47:29.804Z,89.05
2022-10-04T02:49:46.967Z,88.62
2022-10-04T02:52:03.922Z,88.31
2022-10-04T02:54:20.943Z,88.64
2022-10-04T02:56:38.136Z,89.28
2022-10-04T02:58:55.165Z,89.00
2022-10-04T03:01:12.147Z,88.69
2022-10-04T03:03:29.491Z,88.58
2022-10-04T03:05:48.195Z,87.80
2022-10-04T03:08:05.165Z,87.81
2022-10-04T03:10:22.523Z,87.79
2022-10-04T03:12:39.752Z,87.39
2022-10-04T03:14:56.987Z,87.22
2022-10-04T03:17:13.909Z,87.18
2022-10-04T03:19:30.985Z,87.86
2022-10-04T03:21:48.916Z,87.54
2022-10-04T03:24:05.822Z,87.45
2022-10-04T03:26:23.025Z,87.52
2022-10-04T03:28:40.343Z,87.20
2022-10-04T03:30:57.547Z,87.72
2022-10-04T03:33:14.492Z,88.03
2022-10-04T03:35:31.583Z,88.68
2022-10-04T03:37:48.849Z,88.87
2022-10-04T03:40:08.212Z,88.19
2022-10-04T03:42:25.234Z,88.08
2022-10-04T03:44:44.924Z,87.93
2022-10-04T03:47:01.912Z,88.63
2022-10-04T03:49:19.094Z,88.42
2022-10-04T03:51:39.301Z,88.75
2022-10-04T03:53:56.687Z,88.73
2022-10-04T03:56:13.656Z,88.47
2022-10-04T03:58:30.710Z,88.22
2022-10-04T04:00:47.724Z,87.88
2022-10-04T04:03:05.044Z,87.90
2022-10-04T04:05:23.296Z,88.28
2022-10-04T04:07:40.478Z,88.85
2022-10-04T04:09:57.991Z,88.35
2022-10-04T04:12:15.199Z,88.05
2022-10-04T04:14:32.043Z,88.25
2022-10-04T04:16:48.970Z,87.91
2022-10-04T04:19:06.008Z,88.05
2022-10-04T04:21:23.265Z,87.69
2022-10-04T04:23:40.278Z,87.56
2022-10-04T04:25:57.239Z,88.19
2022-10-04T04:28:14.339Z,87.66
2022-10-04T04:30:31.542Z,88.15
2022-10-04T04:32:48.636Z,88.48
2022-10-04T04:35:05.822Z,87.73
2022-10-04T04:37:23.088Z,88.28
2022-10-04T04:39:41.279Z,88.05
2022-10-04T04:42:00.029Z,88.44
2022-10-04T04:44:17.295Z,88.72
2022-10-04T04:46:34.500Z,88.59
2022-10-04T04:48:52.170Z,88.03
2022-10-04T04:51:12.626Z,88.51
2022-10-04T04:53:29.610Z,88.59
2022-10-04T04:56:04.284Z,88.36
2022-10-04T04:58:21.992Z,88.54
2022-10-04T05:00:38.998Z,88.25
2022-10-04T05:02:58.625Z,88.61
2022-10-04T05:05:15.864Z,88.58
2022-10-04T05:07:35.318Z,88.41
2022-10-04T05:09:52.518Z,88.87
2022-10-04T05:12:11.749Z,88.96
2022-10-04T05:14:28.679Z,88.43
2022-10-04T05:16:45.901Z,88.06
2022-10-04T05:19:03.034Z,88.12
2022-10-04T05:21:20.010Z,88.03
2022-10-04T05:23:37.422Z,87.82
2022-10-04T05:25:55.613Z,88.15
2022-10-04T05:28:12.930Z,87.84
2022-10-04T05:30:30.231Z,87.81
2022-10-04T05:32:47.431Z,87.59
2022-10-04T05:35:09.100Z,88.12
2022-10-04T05:37:26.299Z,87.92
2022-10-04T05:39:43.600Z,87.85
2022-10-04T05:42:00.652Z,87.49
2022-10-04T05:44:17.961Z,87.75
2022-10-04T05:46:35.232Z,87.99
2022-10-04T05:48:52.163Z,87.94
2022-10-04T05:51:10.541Z,88.10
2022-10-04T05:53:27.622Z,87.79
2022-10-04T05:55:45.040Z,87.66
2022-10-04T05:58:02.295Z,87.60
2022-10-04T06:00:20.270Z,88.07
2022-10-04T06:02:37.295Z,87.86
2022-10-04T06:04:54.291Z,88.89
2022-10-04T06:07:11.509Z,88.42
2022-10-04T06:09:28.783Z,88.64
2022-10-04T06:11:46.000Z,87.83
2022-10-04T06:14:03.112Z,87.91
2022-10-04T06:16:21.142Z,87.59
2022-10-04T06:18:38.136Z,87.57
2022-10-04T06:20:55.176Z,87.52
2022-10-04T06:23:12.259Z,87.99
2022-10-04T06:25:29.495Z,87.76
2022-10-04T06:27:46.749Z,87.71
2022-10-04T06:30:03.977Z,87.42
2022-10-04T06:32:21.995Z,88.33
2022-10-04T06:34:39.187Z,88.08
2022-10-04T06:36:56.179Z,88.23
2022-10-04T06:39:13.365Z,88.57
2022-10-04T06:41:30.579Z,88.20
2022-10-04T06:43:49.888Z,88.04
2022-10-04T06:46:07.244Z,88.08
2022-10-04T06:48:25.170Z,87.96
2022-10-04T06:50:42.117Z,87.91
2022-10-04T06:52:59.286Z,87.92
2022-10-04T06:55:16.260Z,87.64
2022-10-04T06:57:33.226Z,87.60
2022-10-04T06:59:50.260Z,87.71
2022-10-04T07:02:07.306Z,87.37
2022-10-04T07:04:24.335Z,87.31
2022-10-04T07:06:41.527Z,87.05
2022-10-04T07:08:58.955Z,87.14
2022-10-04T07:11:17.750Z,87.39
2022-10-04T07:13:35.813Z,87.49
2022-10-04T07:15:53.154Z,87.61
2022-10-04T07:18:10.465Z,87.83
2022-10-04T07:20:27.775Z,87.49
2022-10-04T07:22:45.023Z,87.35
2022-10-04T07:25:01.922Z,87.85
2022-10-04T07:27:18.940Z,88.42
2022-10-04T07:29:40.003Z,88.30
2022-10-04T07:31:59.074Z,87.78
2022-10-04T07:34:17.075Z,86.96
2022-10-04T07:36:37.753Z,87.26
2022-10-04T07:38:54.996Z,87.24
2022-10-04T07:41:12.035Z,87.42
2022-10-04T07:43:29.256Z,88.14
2022-10-04T07:45:46.365Z,87.24
2022-10-04T07:48:03.417Z,86.59
2022-10-04T07:50:20.327Z,86.97
2022-10-04T07:52:37.256Z,87.35
2022-10-04T07:54:55.522Z,87.10
2022-10-04T07:57:12.423Z,86.03
2022-10-04T07:59:29.498Z,87.06
2022-10-04T08:01:48.057Z,86.49
2022-10-04T08:04:05.648Z,86.42
2022-10-04T08:06:22.665Z,85.97
2022-10-04T08:08:40.830Z,86.67
2022-10-04T08:10:57.817Z,86.73
2022-10-04T08:13:14.709Z,86.90
2022-10-04T08:15:32.834Z,86.93
2022-10-04T08:17:49.996Z,86.18
2022-10-04T08:20:07.314Z,86.48
2022-10-04T08:22:24.480Z,85.47
2022-10-04T08:24:41.534Z,84.95
2022-10-04T08:26:58.729Z,84.51
2022-10-04T08:29:15.991Z,83.16
2022-10-04T08:31:33.411Z,82.63
2022-10-04T08:33:50.478Z,82.22
2022-10-04T08:36:08.519Z,83.67
2022-10-04T08:38:25.660Z,81.72
2022-10-04T08:40:43.059Z,83.87
2022-10-04T08:43:00.162Z,84.03
2022-10-04T08:45:17.166Z,84.57
2022-10-04T08:47:34.496Z,83.29
2022-10-04T08:49:51.400Z,83.18
2022-10-04T08:52:09.912Z,82.59
2022-10-04T08:54:26.887Z,82.13
2022-10-04T08:56:44.892Z,81.55
2022-10-04T08:59:02.456Z,81.15
2022-10-04T09:01:20.638Z,80.72
2022-10-04T09:03:38.589Z,80.28
2022-10-04T09:05:57.726Z,80.59
2022-10-04T09:08:14.978Z,80.62
2022-10-04T09:10:32.004Z,80.63
2022-10-04T09:12:49.200Z,79.28
2022-10-04T09:15:09.641Z,79.63
2022-10-04T09:17:28.005Z,79.56
2022-10-04T09:19:47.361Z,79.34
2022-10-04T09:22:05.344Z,77.89
2022-10-04T09:24:23.348Z,77.51
2022-10-04T09:26:40.687Z,77.84
2022-10-04T09:29:02.442Z,77.75
2022-10-04T09:31:21.983Z,77.63
2022-10-04T09:33:40.335Z,76.47
2022-10-04T09:35:59.656Z,76.20
2022-10-04T09:38:16.869Z,76.54
2022-10-04T09:40:35.114Z,75.60
2022-10-04T09:42:52.148Z,76.75
2022-10-04T09:45:11.074Z,77.15
2022-10-04T09:47:29.289Z,75.83
2022-10-04T09:49:46.214Z,76.44
2022-10-04T09:52:03.770Z,75.32
2022-10-04T09:54:20.831Z,74.74
2022-10-04T09:56:38.156Z,74.42
2022-10-04T09:58:55.182Z,73.09
2022-10-04T10:01:12.373Z,72.72
2022-10-04T10:03:29.389Z,72.70
2022-10-04T10:05:46.461Z,72.78
2022-10-04T10:08:03.512Z,72.46
2022-10-04T10:10:20.516Z,71.68
2022-10-04T10:12:37.757Z,71.76
2022-10-04T10:14:54.782Z,70.53
2022-10-04T10:17:11.681Z,70.04
2022-10-04T10:19:28.979Z,68.98
2022-10-04T10:21:46.765Z,68.84
2022-10-04T10:24:03.854Z,67.25
2022-10-04T10:26:20.892Z,67.40
2022-10-04T10:28:37.794Z,67.73
2022-10-04T10:30:55.076Z,66.32
2022-10-04T10:33:12.392Z,65.90
2022-10-04T10:35:29.717Z,66.69
2022-10-04T10:37:47.957Z,66.68
2022-10-04T10:40:04.989Z,64.37
2022-10-04T10:42:21.969Z,62.98
2022-10-04T10:44:38.982Z,63.31
2022-10-04T10:46:56.044Z,64.25
2022-10-04T10:49:13.132Z,63.30
2022-10-04T10:51:30.135Z,63.85
2022-10-04T10:53:47.357Z,61.49
2022-10-04T10:56:04.591Z,62.16
2022-10-04T10:58:21.795Z,63.42
2022-10-04T11:00:39.054Z,62.03
2022-10-04T11:03:11.798Z,61.02
2022-10-04T11:05:29.583Z,61.02
2022-10-04T11:07:46.526Z,60.71
2022-10-04T11:10:03.585Z,60.66
2022-10-04T11:12:21.892Z,60.68
2022-10-04T11:14:39.126Z,59.10
2022-10-04T11:16:56.408Z,58.00
2022-10-04T11:19:14.699Z,58.28
2022-10-04T11:21:31.936Z,59.80
2022-10-04T11:23:49.271Z,57.92
2022-10-04T11:26:07.642Z,58.69
2022-10-04T11:28:24.711Z,58.39
2022-10-04T11:30:44.196Z,58.18
2022-10-04T11:33:01.078Z,58.37
2022-10-04T11:35:18.335Z,57.15
2022-10-04T11:37:35.260Z,56.90
2022-10-04T11:39:52.535Z,57.58
2022-10-04T11:42:09.761Z,58.24
2022-10-04T11:44:26.791Z,57.56
2022-10-04T11:46:44.287Z,58.43
2022-10-04T11:49:01.724Z,58.25
2022-10-04T11:51:18.744Z,58.75
2022-10-04T11:53:35.704Z,58.59
2022-10-04T11:55:52.779Z,59.68
2022-10-04T11:58:11.990Z,59.33
2022-10-04T12:00:29.203Z,58.39
2022-10-04T12:02:46.508Z,59.38
2022-10-04T12:05:03.599Z,60.41
2022-10-04T12:07:24.512Z,60.48
2022-10-04T12:09:43.386Z,58.89
2022-10-04T12:12:00.301Z,59.01
2022-10-04T12:14:17.257Z,59.14
2022-10-04T12:16:34.346Z,59.20
2022-10-04T12:18:51.676Z,56.53
2022-10-04T12:21:08.797Z,55.67
2022-10-04T12:23:26.048Z,55.87
2022-10-04T12:25:44.251Z,55.55
2022-10-04T12:28:01.122Z,52.30
2022-10-04T12:30:18.194Z,53.40
2022-10-04T12:32:35.434Z,54.73
2022-10-04T12:34:52.698Z,53.68
2022-10-04T12:37:10.193Z,55.05
2022-10-04T12:39:27.596Z,55.06
2022-10-04T12:41:44.908Z,54.32
2022-10-04T12:44:01.934Z,52.08
2022-10-04T12:46:20.105Z,50.71
2022-10-04T12:48:37.222Z,50.78
2022-10-04T12:50:55.120Z,54.16
2022-10-04T12:53:12.350Z,53.78
2022-10-04T12:55:29.648Z,52.91
2022-10-04T12:57:46.613Z,53.19
2022-10-04T13:00:03.548Z,54.49
2022-10-04T13:02:20.570Z,52.33
2022-10-04T13:04:37.553Z,53.27
2022-10-04T13:06:54.582Z,52.41
2022-10-04T13:09:11.507Z,53.76
2022-10-04T13:11:28.536Z,52.34
2022-10-04T13:13:45.400Z,50.63
2022-10-04T13:18:41.785Z,51.37
2022-10-04T13:20:58.766Z,51.70
2022-10-04T13:23:16.927Z,51.33
2022-10-04T13:25:33.962Z,50.69
2022-10-04T13:27:51.143Z,52.03
2022-10-04T13:30:08.441Z,51.93
2022-10-04T13:32:25.967Z,51.13
2022-10-04T13:34:45.444Z,49.40
2022-10-04T13:37:02.444Z,50.17
2022-10-04T13:39:19.744Z,51.79
2022-10-04T13:41:37.614Z,51.36
2022-10-04T13:43:54.614Z,51.79
2022-10-04T13:46:14.036Z,51.88
2022-10-04T13:48:33.682Z,49.01
2022-10-04T13:50:50.954Z,49.48
2022-10-04T13:53:10.292Z,49.46
2022-10-04T13:55:27.364Z,51.07
2022-10-04T13:57:45.360Z,49.84
2022-10-04T14:00:02.493Z,49.53
2022-10-04T14:02:19.808Z,48.76
2022-10-04T14:04:36.804Z,49.64
2022-10-04T14:06:54.105Z,50.96
2022-10-04T14:09:11.349Z,48.13
2022-10-04T14:11:28.597Z,49.39
2022-10-04T14:13:45.909Z,51.16
2022-10-04T14:16:03.188Z,50.12
2022-10-04T14:18:24.723Z,50.96
2022-10-04T14:20:44.944Z,50.97
2022-10-04T14:23:02.192Z,50.42
2022-10-04T14:25:21.322Z,48.58
2022-10-04T14:27:38.660Z,50.99
2022-10-04T14:29:55.597Z,50.38
2022-10-04T14:32:13.230Z,49.74
2022-10-04T14:34:30.672Z,49.77
2022-10-04T14:36:48.975Z,50.14
2022-10-04T14:39:06.957Z,49.93
2022-10-04T14:41:24.000Z,51.07
2022-10-04T14:43:41.988Z,48.29
2022-10-04T14:45:59.331Z,49.75
2022-10-04T14:48:16.661Z,50.21
2022-10-04T14:50:33.693Z,50.28
2022-10-04T14:52:50.970Z,51.26
2022-10-04T14:55:08.225Z,50.62
2022-10-04T14:57:25.430Z,50.44
2022-10-04T14:59:43.713Z,50.11
2022-10-04T15:02:00.740Z,51.78
2022-10-04T15:04:18.022Z,50.46
2022-10-04T15:06:36.457Z,51.68
2022-10-04T15:08:53.618Z,51.95
2022-10-04T15:11:10.920Z,51.09
2022-10-04T15:13:28.153Z,51.17
2022-10-04T15:15:46.944Z,50.01
2022-10-04T15:18:05.217Z,49.90
2022-10-04T15:20:22.405Z,48.23
2022-10-04T15:22:40.489Z,49.04
2022-10-04T15:24:58.447Z,49.91
2022-10-04T15:27:16.274Z,50.30
2022-10-04T15:29:33.334Z,49.43
2022-10-04T15:31:50.376Z,50.39
2022-10-04T15:34:07.602Z,49.97
2022-10-04T15:36:24.679Z,50.10
2022-10-04T15:38:42.852Z,50.26
2022-10-04T15:41:00.144Z,50.70
2022-10-04T15:43:17.113Z,51.34
2022-10-04T15:45:34.147Z,52.13
2022-10-04T15:47:51.253Z,53.25
2022-10-04T15:50:08.340Z,53.10
2022-10-04T15:52:25.245Z,52.48
2022-10-04T15:54:42.303Z,54.08
2022-10-04T15:57:00.470Z,57.54
2022-10-04T15:59:17.704Z,59.44
2022-10-04T16:01:34.988Z,62.12
2022-10-04T16:03:53.322Z,65.55
2022-10-04T16:06:10.606Z,65.32
2022-10-04T16:08:28.841Z,69.46
2022-10-04T16:10:46.152Z,70.38
2022-10-04T16:13:03.062Z,70.52
2022-10-04T16:15:20.400Z,70.91
2022-10-04T16:17:37.553Z,72.87
2022-10-04T16:19:55.848Z,73.71
2022-10-04T16:22:13.927Z,75.39
2022-10-04T16:24:31.084Z,75.78
2022-10-04T16:26:48.668Z,76.01
2022-10-04T16:29:06.793Z,76.58
2022-10-04T16:31:24.194Z,77.29
2022-10-04T16:33:41.544Z,78.26
2022-10-04T16:35:58.535Z,77.88
2022-10-04T16:38:15.894Z,79.69
2022-10-04T16:40:33.204Z,79.34
2022-10-04T16:42:52.899Z,79.99
2022-10-04T16:45:10.196Z,79.96
2022-10-04T16:47:27.299Z,80.57
2022-10-04T16:49:45.566Z,82.40
2022-10-04T16:52:02.688Z,81.24
2022-10-04T16:54:22.002Z,82.64
2022-10-04T16:56:43.346Z,82.19
2022-10-04T16:59:00.739Z,82.25
2022-10-04T17:01:17.833Z,84.58
2022-10-04T17:03:34.829Z,83.71
2022-10-04T17:05:52.083Z,83.54
2022-10-04T17:08:09.144Z,83.01
2022-10-04T17:10:26.158Z,84.94
2022-10-04T17:12:43.310Z,84.07
2022-10-04T17:15:00.531Z,84.29
2022-10-04T17:17:18.749Z,85.51
2022-10-04T17:19:37.118Z,85.38
2022-10-04T17:21:54.361Z,83.95
2022-10-04T17:24:15.460Z,85.65
2022-10-04T17:26:33.462Z,86.14
2022-10-04T17:28:50.836Z,85.62
2022-10-04T17:31:07.824Z,84.92
2022-10-04T17:33:25.153Z,84.61
2022-10-04T17:35:43.439Z,86.22
2022-10-04T17:38:00.312Z,85.98
2022-10-04T17:40:17.931Z,86.19
2022-10-04T17:42:36.140Z,86.67
2022-10-04T17:44:53.679Z,86.33
2022-10-04T17:47:14.506Z,85.84
2022-10-04T17:49:33.912Z,85.78
2022-10-04T17:51:51.890Z,86.53
2022-10-04T17:54:09.149Z,86.68
2022-10-04T17:56:26.091Z,85.72
2022-10-04T17:58:43.414Z,86.23
2022-10-04T18:01:00.385Z,86.67
2022-10-04T18:03:17.701Z,86.44
2022-10-04T18:05:34.723Z,85.91
2022-10-04T18:07:51.711Z,86.26
2022-10-04T18:10:08.882Z,86.32
2022-10-04T18:12:27.114Z,86.33
2022-10-04T18:14:44.144Z,85.85
2022-10-04T18:17:02.031Z,86.93
2022-10-04T18:19:20.297Z,86.51
2022-10-04T18:21:37.324Z,87.26
2022-10-04T18:23:55.350Z,87.02
2022-10-04T18:26:12.366Z,86.84
2022-10-04T18:28:29.630Z,86.92
2022-10-04T18:30:47.717Z,87.07
2022-10-04T18:33:04.979Z,87.46
2022-10-04T18:35:22.054Z,87.13
2022-10-04T18:37:39.054Z,87.21
2022-10-04T18:39:55.989Z,87.19
2022-10-04T18:42:13.341Z,87.24
2022-10-04T18:44:30.609Z,87.08
2022-10-04T18:46:47.871Z,87.03
2022-10-04T18:49:05.331Z,87.29
2022-10-04T18:51:22.275Z,87.39
2022-10-04T18:53:39.397Z,87.66
2022-10-04T18:55:57.187Z,86.87
2022-10-04T18:58:14.376Z,86.55
2022-10-04T19:00:31.369Z,86.89
2022-10-04T19:02:48.654Z,86.80
2022-10-04T19:05:06.948Z,86.83
2022-10-04T19:07:24.783Z,87.06
2022-10-04T19:09:42.032Z,87.19
2022-10-04T19:11:59.078Z,87.95
2022-10-04T19:14:17.048Z,87.12
2022-10-04T19:16:35.308Z,86.87
2022-10-04T19:18:53.652Z,87.24
2022-10-04T19:21:10.865Z,86.46
2022-10-04T19:23:29.227Z,87.42
2022-10-04T19:26:09.997Z,87.23
2022-10-04T19:28:24.588Z,87.33
2022-10-04T19:30:41.575Z,87.35
2022-10-04T19:32:58.872Z,87.18
2022-10-04T19:35:15.878Z,87.47
2022-10-04T19:37:32.729Z,86.38
2022-10-04T19:39:49.678Z,87.36
2022-10-04T19:42:08.242Z,87.12
2022-10-04T19:44:26.865Z,85.92
2022-10-04T19:46:44.277Z,85.94
2022-10-04T19:49:04.383Z,87.32
2022-10-04T19:51:21.605Z,86.68
2022-10-04T19:53:39.626Z,87.21
2022-10-04T19:55:56.933Z,87.64
2022-10-04T19:58:13.883Z,87.50
2022-10-04T20:00:30.792Z,87.19
2022-10-04T20:02:49.237Z,86.40
2022-10-04T20:05:07.191Z,86.27
2022-10-04T20:07:24.254Z,87.50
2022-10-04T20:09:41.155Z,87.10
2022-10-04T20:11:58.192Z,87.83
2022-10-04T20:14:15.209Z,86.52
2022-10-04T20:16:32.514Z,86.71
2022-10-04T20:18:50.575Z,87.76
2022-10-04T20:21:08.518Z,86.57
2022-10-04T20:23:25.747Z,86.87
2022-10-04T20:25:43.138Z,87.02
2022-10-04T20:28:00.610Z,88.00
2022-10-04T20:30:17.626Z,87.96
2022-10-04T20:32:34.634Z,87.76
2022-10-04T20:34:51.608Z,86.29
2022-10-04T20:37:08.589Z,87.60
2022-10-04T20:39:25.910Z,87.64
2022-10-04T20:41:43.212Z,87.48
2022-10-04T20:44:01.397Z,87.71
2022-10-04T20:46:19.792Z,87.81
2022-10-04T20:48:37.357Z,87.28
2022-10-04T20:50:54.600Z,87.12
2022-10-04T20:53:11.512Z,86.20
2022-10-04T20:55:28.630Z,86.47
2022-10-04T20:57:45.996Z,87.86
2022-10-04T21:00:04.443Z,86.21
2022-10-04T21:02:21.768Z,86.54
2022-10-04T21:04:38.776Z,87.51
2022-10-04T21:06:56.478Z,86.21
2022-10-04T21:09:14.851Z,86.46
2022-10-04T21:11:34.162Z,87.21
2022-10-04T21:13:51.209Z,86.69
2022-10-04T21:16:08.624Z,86.29
2022-10-04T21:18:25.978Z,86.96
2022-10-04T21:20:43.304Z,87.17
2022-10-04T21:23:00.570Z,87.29
2022-10-04T21:25:17.562Z,87.01
2022-10-04T21:27:34.622Z,87.76
2022-10-04T21:29:51.667Z,88.45
2022-10-04T21:32:09.073Z,87.48
2022-10-04T21:34:51.434Z,88.63
2022-10-04T21:37:03.288Z,87.24
2022-10-04T21:39:21.533Z,88.69
2022-10-04T21:41:38.589Z,87.81
2022-10-04T21:43:55.932Z,88.16
2022-10-04T21:46:17.851Z,88.46
2022-10-04T21:48:37.508Z,89.21
2022-10-04T21:50:56.124Z,88.87
2022-10-04T21:53:13.087Z,88.46
2022-10-04T21:55:30.421Z,88.85
2022-10-04T21:57:48.485Z,87.83
2022-10-04T22:00:05.479Z,88.43
2022-10-04T22:02:25.022Z,87.99
2022-10-04T22:04:42.135Z,89.25
2022-10-04T22:07:01.513Z,89.18
2022-10-04T22:09:18.842Z,88.93
2022-10-04T22:11:36.122Z,88.04
2022-10-04T22:13:53.327Z,88.78
2022-10-04T22:16:10.818Z,88.63
2022-10-04T22:18:28.912Z,90.88
2022-10-04T22:20:45.912Z,91.34
2022-10-04T22:23:03.254Z,92.20
2022-10-04T22:25:20.468Z,92.31
2022-10-04T22:27:37.783Z,93.16
2022-10-04T22:29:55.757Z,92.47
2022-10-04T22:32:12.877Z,91.91
2022-10-04T22:34:29.975Z,93.23
2022-10-04T22:36:47.580Z,92.45
2022-10-04T22:39:06.036Z,91.27
2022-10-04T22:41:23.282Z,91.73
2022-10-04T22:43:40.174Z,91.99
2022-10-04T22:45:57.894Z,92.37
2022-10-04T22:48:16.293Z,92.71
2022-10-04T22:50:34.371Z,92.38
2022-10-04T22:52:52.311Z,91.53
2022-10-04T22:55:10.414Z,91.92
2022-10-04T22:57:30.452Z,91.90
2022-10-04T22:59:47.339Z,92.67
2022-10-04T23:02:07.101Z,91.09
2022-10-04T23:04:24.023Z,91.78
2022-10-04T23:06:41.065Z,92.01
2022-10-04T23:08:58.104Z,92.22
2022-10-04T23:11:15.055Z,91.73
2022-10-04T23:13:33.089Z,91.70
2022-10-04T23:15:50.056Z,91.58
2022-10-04T23:18:08.979Z,90.43
2022-10-04T23:20:25.981Z,90.59
2022-10-04T23:22:43.287Z,90.96
2022-10-04T23:25:14.008Z,90.18
2022-10-04T23:27:33.374Z,90.10
2022-10-04T23:29:50.614Z,90.47
2022-10-04T23:32:07.739Z,90.71
2022-10-04T23:34:24.787Z,89.71
2022-10-04T23:36:41.957Z,90.03
2022-10-04T23:38:59.200Z,90.29
2022-10-04T23:41:16.168Z,90.47
2022-10-04T23:43:33.096Z,90.73
2022-10-04T23:45:51.872Z,90.98
2022-10-04T23:48:12.303Z,91.37
2022-10-04T23:50:29.603Z,91.19
2022-10-04T23:52:46.835Z,90.79
2022-10-04T23:55:04.282Z,91.17
2022-10-04T23:57:21.600Z,92.04
2022-10-04T23:59:38.822Z,91.40
